This is the latest recevied weather packets stored in our database for station/object WP4PW. If no packets are shown the sender has not sent any weather packets the latest 1 day(s).
| Time | Temp. | Humidity | Pressure | Rain* | Wind** | Luminosity | Snow |
|---|---|---|---|---|---|---|---|
| 1778011330 | 30.56° C | 78% | 1020.4 hPa | 0 mm | 2.24 m/s, 133° | 513 W/m² | - |
| 1778011026 | 31.11° C | 74% | 1020.4 hPa | 0 mm | 1.34 m/s, 135° | 484 W/m² | - |
| 1778010724 | 30.56° C | 75% | 1020.4 hPa | 0 mm | 1.79 m/s, 122° | 471 W/m² | - |
| 1778010421 | 30.56° C | 74% | 1020.5 hPa | 0 mm | 2.68 m/s, 127° | 491 W/m² | - |
| 1778010117 | 30.56° C | 75% | 1020.5 hPa | 0 mm | 1.34 m/s, 136° | 529 W/m² | - |
| 1778009813 | 31.11° C | 73% | 1020.5 hPa | 0 mm | 1.79 m/s, 102° | 546 W/m² | - |
| 1778009511 | 31.11° C | 75% | 1020.6 hPa | 0 mm | 1.34 m/s, 139° | 543 W/m² | - |
| 1778009209 | 30.56° C | 73% | 1020.6 hPa | 0 mm | 1.79 m/s, 166° | 573 W/m² | - |
| 1778008901 | 31.11° C | 74% | 1020.4 hPa | 0 mm | 0.45 m/s, 108° | 212 W/m² | - |
| 1778008599 | 30° C | 76% | 1020.5 hPa | 0 mm | 0.89 m/s, 163° | 665 W/m² | - |
| 1778008297 | 30° C | 77% | 1020.7 hPa | 0 mm | 1.34 m/s, 141° | 190 W/m² | - |
| 1778007993 | 29.44° C | 82% | 1020.6 hPa | 0 mm | 2.24 m/s, 112° | 187 W/m² | - |
| 1778007692 | 29.44° C | 82% | 1020.8 hPa | 0 mm | 4.02 m/s, 85° | 181 W/m² | - |
| 1778007390 | 30° C | 82% | 1020.8 hPa | 0 mm | 2.24 m/s, 67° | 134 W/m² | - |
| 1778007086 | 30.56° C | 80% | 1020.6 hPa | 0 mm | 2.24 m/s, 124° | 181 W/m² | - |
| 1778006783 | 31.67° C | 72% | 1020.7 hPa | 0 mm | 2.68 m/s, 194° | 265 W/m² | - |
| 1778006480 | 31.11° C | 73% | 1020.6 hPa | 0 mm | 2.68 m/s, 148° | 295 W/m² | - |
| 1778006176 | 31.11° C | 72% | 1020.6 hPa | 0 mm | 2.68 m/s, 126° | 868 W/m² | - |
| 1778005874 | 31.11° C | 74% | 1020.9 hPa | 0 mm | 1.79 m/s, 137° | 760 W/m² | - |
| 1778005570 | 31.11° C | 72% | 1020.8 hPa | 0 mm | 1.34 m/s, 129° | 310 W/m² | - |
| 1778005267 | 31.11° C | 74% | 1021.1 hPa | 0 mm | 3.58 m/s, 86° | 310 W/m² | - |
| 1778004964 | 30.56° C | 75% | 1021.1 hPa | 0 mm | 1.34 m/s, 107° | 168 W/m² | - |
| 1778004661 | 30.56° C | 74% | 1021.2 hPa | 0 mm | 2.24 m/s, 170° | 807 W/m² | - |
| 1778004356 | 31.11° C | 74% | 1021.3 hPa | 0 mm | 3.13 m/s, 145° | 215 W/m² | - |
| 1778004055 | 32.22° C | 71% | 1021.3 hPa | 0 mm | 2.68 m/s, 112° | 407 W/m² | - |
* Rain latest hour (hover to see other rain measurements)
** Current wind speed in m/s (hover to see current wind gust speed)